sensor_id;sensor_type;location;lat;lon;timestamp;temperature;humidity
19110;DHT22;9687;50.836;12.060;2024-03-07T00:02:10;9.90;65.10
19110;DHT22;9687;50.836;12.060;2024-03-07T00:04:40;9.90;65.10
19110;DHT22;9687;50.836;12.060;2024-03-07T00:07:09;9.90;65.10
19110;DHT22;9687;50.836;12.060;2024-03-07T00:09:37;9.90;65.10
19110;DHT22;9687;50.836;12.060;2024-03-07T00:12:06;9.80;65.00
19110;DHT22;9687;50.836;12.060;2024-03-07T00:14:34;9.80;65.00
19110;DHT22;9687;50.836;12.060;2024-03-07T00:17:03;9.80;65.00
19110;DHT22;9687;50.836;12.060;2024-03-07T00:19:32;9.80;65.00
19110;DHT22;9687;50.836;12.060;2024-03-07T00:22:01;9.90;65.10
19110;DHT22;9687;50.836;12.060;2024-03-07T00:24:29;9.80;65.00
19110;DHT22;9687;50.836;12.060;2024-03-07T00:26:58;9.70;65.00
19110;DHT22;9687;50.836;12.060;2024-03-07T00:29:27;9.80;65.00
19110;DHT22;9687;50.836;12.060;2024-03-07T00:31:55;9.80;65.00
19110;DHT22;9687;50.836;12.060;2024-03-07T00:34:25;9.80;65.00
19110;DHT22;9687;50.836;12.060;2024-03-07T00:36:53;9.80;65.00
19110;DHT22;9687;50.836;12.060;2024-03-07T00:39:24;9.80;65.00
19110;DHT22;9687;50.836;12.060;2024-03-07T00:41:51;9.80;65.00
19110;DHT22;9687;50.836;12.060;2024-03-07T00:44:20;9.90;65.10
19110;DHT22;9687;50.836;12.060;2024-03-07T00:46:48;9.80;65.00
19110;DHT22;9687;50.836;12.060;2024-03-07T00:49:18;9.90;65.10
19110;DHT22;9687;50.836;12.060;2024-03-07T00:51:49;9.90;65.20
19110;DHT22;9687;50.836;12.060;2024-03-07T00:54:18;9.90;65.10
19110;DHT22;9687;50.836;12.060;2024-03-07T00:56:47;9.90;65.10
19110;DHT22;9687;50.836;12.060;2024-03-07T00:59:15;9.90;65.10
19110;DHT22;9687;50.836;12.060;2024-03-07T01:01:43;9.90;65.20
19110;DHT22;9687;50.836;12.060;2024-03-07T01:04:14;9.90;65.20
19110;DHT22;9687;50.836;12.060;2024-03-07T01:06:42;9.90;65.20
19110;DHT22;9687;50.836;12.060;2024-03-07T01:09:10;9.90;65.20
19110;DHT22;9687;50.836;12.060;2024-03-07T01:11:42;9.90;65.20
19110;DHT22;9687;50.836;12.060;2024-03-07T01:14:13;9.90;65.10
19110;DHT22;9687;50.836;12.060;2024-03-07T01:16:42;9.90;65.10
19110;DHT22;9687;50.836;12.060;2024-03-07T01:19:11;9.80;65.10
19110;DHT22;9687;50.836;12.060;2024-03-07T01:21:41;9.80;65.10
19110;DHT22;9687;50.836;12.060;2024-03-07T01:24:09;9.80;65.20
19110;DHT22;9687;50.836;12.060;2024-03-07T01:26:37;9.80;65.20
19110;DHT22;9687;50.836;12.060;2024-03-07T01:29:05;9.80;65.30
19110;DHT22;9687;50.836;12.060;2024-03-07T01:31:35;9.80;65.40
19110;DHT22;9687;50.836;12.060;2024-03-07T01:34:02;9.70;65.40
19110;DHT22;9687;50.836;12.060;2024-03-07T01:36:31;9.70;65.40
19110;DHT22;9687;50.836;12.060;2024-03-07T01:38:59;9.70;65.40
19110;DHT22;9687;50.836;12.060;2024-03-07T01:41:28;9.70;65.40
19110;DHT22;9687;50.836;12.060;2024-03-07T01:43:55;9.80;65.50
19110;DHT22;9687;50.836;12.060;2024-03-07T01:46:25;9.80;65.50
19110;DHT22;9687;50.836;12.060;2024-03-07T01:48:54;9.80;65.50
19110;DHT22;9687;50.836;12.060;2024-03-07T01:51:22;9.80;66.20
19110;DHT22;9687;50.836;12.060;2024-03-07T01:53:50;9.80;65.40
19110;DHT22;9687;50.836;12.060;2024-03-07T01:56:18;9.70;65.40
19110;DHT22;9687;50.836;12.060;2024-03-07T01:58:47;9.70;65.40
19110;DHT22;9687;50.836;12.060;2024-03-07T02:01:15;9.70;65.30
19110;DHT22;9687;50.836;12.060;2024-03-07T02:04:03;9.70;65.30
19110;DHT22;9687;50.836;12.060;2024-03-07T02:06:33;9.80;65.50
19110;DHT22;9687;50.836;12.060;2024-03-07T02:09:01;9.70;65.40
19110;DHT22;9687;50.836;12.060;2024-03-07T02:11:29;9.70;65.40
19110;DHT22;9687;50.836;12.060;2024-03-07T02:13:57;9.70;65.40
19110;DHT22;9687;50.836;12.060;2024-03-07T02:16:28;9.70;65.40
19110;DHT22;9687;50.836;12.060;2024-03-07T02:18:57;9.70;65.30
19110;DHT22;9687;50.836;12.060;2024-03-07T02:21:28;9.70;65.30
19110;DHT22;9687;50.836;12.060;2024-03-07T02:23:57;9.70;65.40
19110;DHT22;9687;50.836;12.060;2024-03-07T02:26:26;9.70;65.40
19110;DHT22;9687;50.836;12.060;2024-03-07T02:28:53;9.70;65.40
19110;DHT22;9687;50.836;12.060;2024-03-07T02:31:21;9.70;65.40
19110;DHT22;9687;50.836;12.060;2024-03-07T02:34:00;9.70;65.40
19110;DHT22;9687;50.836;12.060;2024-03-07T02:36:29;9.70;65.40
19110;DHT22;9687;50.836;12.060;2024-03-07T02:38:57;9.70;65.50
19110;DHT22;9687;50.836;12.060;2024-03-07T02:41:25;9.70;65.40
19110;DHT22;9687;50.836;12.060;2024-03-07T02:43:52;9.70;65.40
19110;DHT22;9687;50.836;12.060;2024-03-07T02:46:20;9.70;65.50
19110;DHT22;9687;50.836;12.060;2024-03-07T02:48:47;9.70;65.40
19110;DHT22;9687;50.836;12.060;2024-03-07T02:51:14;9.70;65.40
19110;DHT22;9687;50.836;12.060;2024-03-07T02:53:44;9.70;65.40
19110;DHT22;9687;50.836;12.060;2024-03-07T02:56:11;9.70;65.40
19110;DHT22;9687;50.836;12.060;2024-03-07T02:58:40;9.70;65.50
19110;DHT22;9687;50.836;12.060;2024-03-07T03:01:09;9.70;65.60
19110;DHT22;9687;50.836;12.060;2024-03-07T03:03:52;9.70;65.60
19110;DHT22;9687;50.836;12.060;2024-03-07T03:06:20;9.70;65.70
19110;DHT22;9687;50.836;12.060;2024-03-07T03:08:49;9.70;65.70
19110;DHT22;9687;50.836;12.060;2024-03-07T03:11:17;9.70;65.80
19110;DHT22;9687;50.836;12.060;2024-03-07T03:13:44;9.60;65.90
19110;DHT22;9687;50.836;12.060;2024-03-07T03:16:14;9.60;66.00
19110;DHT22;9687;50.836;12.060;2024-03-07T03:18:42;9.60;66.10
19110;DHT22;9687;50.836;12.060;2024-03-07T03:21:11;9.60;66.40
19110;DHT22;9687;50.836;12.060;2024-03-07T03:23:38;9.60;66.50
19110;DHT22;9687;50.836;12.060;2024-03-07T03:26:09;9.60;66.70
19110;DHT22;9687;50.836;12.060;2024-03-07T03:28:37;9.60;66.90
19110;DHT22;9687;50.836;12.060;2024-03-07T03:31:07;9.60;67.00
19110;DHT22;9687;50.836;12.060;2024-03-07T03:33:36;9.60;67.20
19110;DHT22;9687;50.836;12.060;2024-03-07T03:36:07;9.50;67.40
19110;DHT22;9687;50.836;12.060;2024-03-07T03:38:35;9.50;67.50
19110;DHT22;9687;50.836;12.060;2024-03-07T03:41:03;9.50;67.70
19110;DHT22;9687;50.836;12.060;2024-03-07T03:43:33;9.50;67.80
19110;DHT22;9687;50.836;12.060;2024-03-07T03:46:01;9.50;68.00
19110;DHT22;9687;50.836;12.060;2024-03-07T03:48:30;9.50;68.10
19110;DHT22;9687;50.836;12.060;2024-03-07T03:50:57;9.50;68.20
19110;DHT22;9687;50.836;12.060;2024-03-07T03:53:24;9.50;68.30
19110;DHT22;9687;50.836;12.060;2024-03-07T03:55:52;9.50;68.50
19110;DHT22;9687;50.836;12.060;2024-03-07T03:58:19;9.40;68.50
19110;DHT22;9687;50.836;12.060;2024-03-07T04:00:49;9.40;68.70
19110;DHT22;9687;50.836;12.060;2024-03-07T04:03:17;9.50;68.90
19110;DHT22;9687;50.836;12.060;2024-03-07T04:05:46;9.40;69.50
19110;DHT22;9687;50.836;12.060;2024-03-07T04:08:13;9.40;69.00
19110;DHT22;9687;50.836;12.060;2024-03-07T04:10:43;9.40;69.20
19110;DHT22;9687;50.836;12.060;2024-03-07T04:13:15;9.40;69.40
19110;DHT22;9687;50.836;12.060;2024-03-07T04:15:43;9.40;69.60
19110;DHT22;9687;50.836;12.060;2024-03-07T04:18:13;9.40;69.80
19110;DHT22;9687;50.836;12.060;2024-03-07T04:20:45;9.40;69.90
19110;DHT22;9687;50.836;12.060;2024-03-07T04:23:12;9.40;70.20
19110;DHT22;9687;50.836;12.060;2024-03-07T04:25:40;9.40;70.30
19110;DHT22;9687;50.836;12.060;2024-03-07T04:28:11;9.30;70.20
19110;DHT22;9687;50.836;12.060;2024-03-07T04:30:39;9.30;70.20
19110;DHT22;9687;50.836;12.060;2024-03-07T04:33:08;9.30;70.20
19110;DHT22;9687;50.836;12.060;2024-03-07T04:35:39;9.30;70.50
19110;DHT22;9687;50.836;12.060;2024-03-07T04:38:06;9.30;70.80
19110;DHT22;9687;50.836;12.060;2024-03-07T04:40:37;9.30;71.00
19110;DHT22;9687;50.836;12.060;2024-03-07T04:43:07;9.30;71.20
19110;DHT22;9687;50.836;12.060;2024-03-07T04:45:35;9.30;71.30
19110;DHT22;9687;50.836;12.060;2024-03-07T04:48:04;9.30;71.50
19110;DHT22;9687;50.836;12.060;2024-03-07T04:50:32;9.30;71.60
19110;DHT22;9687;50.836;12.060;2024-03-07T04:53:02;9.30;71.70
19110;DHT22;9687;50.836;12.060;2024-03-07T04:55:30;9.40;72.00
19110;DHT22;9687;50.836;12.060;2024-03-07T04:57:59;9.30;72.00
19110;DHT22;9687;50.836;12.060;2024-03-07T05:00:27;9.20;72.00
19110;DHT22;9687;50.836;12.060;2024-03-07T05:03:08;9.30;72.20
19110;DHT22;9687;50.836;12.060;2024-03-07T05:05:37;9.30;72.30
19110;DHT22;9687;50.836;12.060;2024-03-07T05:08:07;9.30;72.40
19110;DHT22;9687;50.836;12.060;2024-03-07T05:10:42;9.30;72.40
19110;DHT22;9687;50.836;12.060;2024-03-07T05:13:12;9.20;72.50
19110;DHT22;9687;50.836;12.060;2024-03-07T05:15:40;9.20;72.80
19110;DHT22;9687;50.836;12.060;2024-03-07T05:18:08;9.20;72.90
19110;DHT22;9687;50.836;12.060;2024-03-07T05:20:36;9.20;73.10
19110;DHT22;9687;50.836;12.060;2024-03-07T05:23:08;9.30;73.30
19110;DHT22;9687;50.836;12.060;2024-03-07T05:25:37;9.20;73.30
19110;DHT22;9687;50.836;12.060;2024-03-07T05:28:06;9.30;73.40
19110;DHT22;9687;50.836;12.060;2024-03-07T05:30:36;9.50;73.60
19110;DHT22;9687;50.836;12.060;2024-03-07T05:33:05;9.30;73.40
19110;DHT22;9687;50.836;12.060;2024-03-07T05:35:33;9.30;73.40
19110;DHT22;9687;50.836;12.060;2024-03-07T05:38:02;9.20;73.40
19110;DHT22;9687;50.836;12.060;2024-03-07T05:40:33;9.20;73.50
19110;DHT22;9687;50.836;12.060;2024-03-07T05:43:01;9.20;73.70
19110;DHT22;9687;50.836;12.060;2024-03-07T05:45:30;9.20;73.80
19110;DHT22;9687;50.836;12.060;2024-03-07T05:47:57;9.20;74.00
19110;DHT22;9687;50.836;12.060;2024-03-07T05:50:41;9.20;74.10
19110;DHT22;9687;50.836;12.060;2024-03-07T05:53:11;9.20;74.30
19110;DHT22;9687;50.836;12.060;2024-03-07T05:58:27;9.20;74.40
19110;DHT22;9687;50.836;12.060;2024-03-07T06:00:55;9.20;74.40
19110;DHT22;9687;50.836;12.060;2024-03-07T06:03:24;9.20;74.40
19110;DHT22;9687;50.836;12.060;2024-03-07T06:05:55;9.20;74.50
19110;DHT22;9687;50.836;12.060;2024-03-07T06:08:22;9.20;74.60
19110;DHT22;9687;50.836;12.060;2024-03-07T06:10:50;9.20;74.60
19110;DHT22;9687;50.836;12.060;2024-03-07T06:13:20;9.20;74.70
19110;DHT22;9687;50.836;12.060;2024-03-07T06:15:50;9.20;74.80
19110;DHT22;9687;50.836;12.060;2024-03-07T06:18:18;9.10;74.80
19110;DHT22;9687;50.836;12.060;2024-03-07T06:20:46;9.20;75.00
19110;DHT22;9687;50.836;12.060;2024-03-07T06:23:15;9.10;75.00
19110;DHT22;9687;50.836;12.060;2024-03-07T06:25:43;9.10;75.20
19110;DHT22;9687;50.836;12.060;2024-03-07T06:28:17;9.10;75.40
19110;DHT22;9687;50.836;12.060;2024-03-07T06:30:46;9.20;75.70
19110;DHT22;9687;50.836;12.060;2024-03-07T06:33:17;9.20;75.70
19110;DHT22;9687;50.836;12.060;2024-03-07T06:35:47;9.20;75.70
19110;DHT22;9687;50.836;12.060;2024-03-07T06:38:15;9.20;75.70
19110;DHT22;9687;50.836;12.060;2024-03-07T06:40:42;9.20;75.80
19110;DHT22;9687;50.836;12.060;2024-03-07T06:43:14;9.20;75.90
19110;DHT22;9687;50.836;12.060;2024-03-07T06:45:41;9.20;75.90
19110;DHT22;9687;50.836;12.060;2024-03-07T06:48:11;9.20;76.00
19110;DHT22;9687;50.836;12.060;2024-03-07T06:50:43;9.10;76.10
19110;DHT22;9687;50.836;12.060;2024-03-07T06:53:16;9.10;76.20
19110;DHT22;9687;50.836;12.060;2024-03-07T06:55:45;9.10;76.40
19110;DHT22;9687;50.836;12.060;2024-03-07T06:58:12;9.10;76.50
19110;DHT22;9687;50.836;12.060;2024-03-07T07:00:40;9.10;76.50
19110;DHT22;9687;50.836;12.060;2024-03-07T07:03:08;9.10;76.60
19110;DHT22;9687;50.836;12.060;2024-03-07T07:05:39;9.10;76.70
19110;DHT22;9687;50.836;12.060;2024-03-07T07:08:08;9.10;76.70
19110;DHT22;9687;50.836;12.060;2024-03-07T07:10:36;9.10;76.80
19110;DHT22;9687;50.836;12.060;2024-03-07T07:13:06;9.10;77.00
19110;DHT22;9687;50.836;12.060;2024-03-07T07:15:36;9.10;77.10
19110;DHT22;9687;50.836;12.060;2024-03-07T07:18:04;9.10;77.20
19110;DHT22;9687;50.836;12.060;2024-03-07T07:20:42;9.10;77.40
19110;DHT22;9687;50.836;12.060;2024-03-07T07:23:16;9.10;77.50
19110;DHT22;9687;50.836;12.060;2024-03-07T07:25:47;9.10;77.50
19110;DHT22;9687;50.836;12.060;2024-03-07T07:28:14;9.10;77.50
19110;DHT22;9687;50.836;12.060;2024-03-07T07:30:42;9.10;77.60
19110;DHT22;9687;50.836;12.060;2024-03-07T07:33:11;9.10;78.50
19110;DHT22;9687;50.836;12.060;2024-03-07T07:35:39;9.20;77.90
19110;DHT22;9687;50.836;12.060;2024-03-07T07:38:07;9.20;77.90
19110;DHT22;9687;50.836;12.060;2024-03-07T07:43:25;9.20;78.30
19110;DHT22;9687;50.836;12.060;2024-03-07T07:45:55;9.40;78.90
19110;DHT22;9687;50.836;12.060;2024-03-07T07:48:22;9.60;78.80
19110;DHT22;9687;50.836;12.060;2024-03-07T07:50:50;9.50;78.30
19110;DHT22;9687;50.836;12.060;2024-03-07T07:53:18;9.50;78.00
19110;DHT22;9687;50.836;12.060;2024-03-07T07:55:48;9.50;77.90
19110;DHT22;9687;50.836;12.060;2024-03-07T07:58:16;9.50;77.90
19110;DHT22;9687;50.836;12.060;2024-03-07T08:04:11;9.50;77.90
19110;DHT22;9687;50.836;12.060;2024-03-07T08:06:40;9.50;77.90
19110;DHT22;9687;50.836;12.060;2024-03-07T08:09:09;9.50;78.10
19110;DHT22;9687;50.836;12.060;2024-03-07T08:11:37;9.50;78.30
19110;DHT22;9687;50.836;12.060;2024-03-07T08:14:08;9.60;78.30
19110;DHT22;9687;50.836;12.060;2024-03-07T08:16:38;9.70;78.20
19110;DHT22;9687;50.836;12.060;2024-03-07T08:22:37;9.80;78.00
19110;DHT22;9687;50.836;12.060;2024-03-07T08:25:09;10.00;77.20
19110;DHT22;9687;50.836;12.060;2024-03-07T08:27:37;10.20;77.30
19110;DHT22;9687;50.836;12.060;2024-03-07T08:30:05;10.40;76.80
19110;DHT22;9687;50.836;12.060;2024-03-07T08:32:34;10.80;76.40
19110;DHT22;9687;50.836;12.060;2024-03-07T08:35:04;11.00;75.70
19110;DHT22;9687;50.836;12.060;2024-03-07T08:40:22;11.60;74.80
19110;DHT22;9687;50.836;12.060;2024-03-07T08:42:50;11.90;73.20
19110;DHT22;9687;50.836;12.060;2024-03-07T08:45:25;12.20;72.70
19110;DHT22;9687;50.836;12.060;2024-03-07T08:47:53;12.40;72.30
19110;DHT22;9687;50.836;12.060;2024-03-07T08:50:21;12.50;70.40
19110;DHT22;9687;50.836;12.060;2024-03-07T08:52:49;12.60;69.90
19110;DHT22;9687;50.836;12.060;2024-03-07T08:55:18;12.70;70.20
19110;DHT22;9687;50.836;12.060;2024-03-07T09:00:48;12.90;69.50
19110;DHT22;9687;50.836;12.060;2024-03-07T09:03:18;12.90;68.30
19110;DHT22;9687;50.836;12.060;2024-03-07T09:05:47;12.90;67.80
19110;DHT22;9687;50.836;12.060;2024-03-07T09:08:16;12.80;66.90
19110;DHT22;9687;50.836;12.060;2024-03-07T09:10:45;12.60;65.90
19110;DHT22;9687;50.836;12.060;2024-03-07T09:13:13;12.60;66.40
19110;DHT22;9687;50.836;12.060;2024-03-07T09:15:40;12.80;65.40
19110;DHT22;9687;50.836;12.060;2024-03-07T09:18:11;13.00;66.30
19110;DHT22;9687;50.836;12.060;2024-03-07T09:20:40;13.30;66.40
19110;DHT22;9687;50.836;12.060;2024-03-07T09:23:08;13.70;66.50
19110;DHT22;9687;50.836;12.060;2024-03-07T09:25:35;14.00;66.10
19110;DHT22;9687;50.836;12.060;2024-03-07T09:28:03;14.30;65.40
19110;DHT22;9687;50.836;12.060;2024-03-07T09:30:32;14.60;65.00
19110;DHT22;9687;50.836;12.060;2024-03-07T09:33:02;14.80;64.30
19110;DHT22;9687;50.836;12.060;2024-03-07T09:38:15;15.00;64.00
19110;DHT22;9687;50.836;12.060;2024-03-07T09:40:46;15.10;63.70
19110;DHT22;9687;50.836;12.060;2024-03-07T09:43:13;15.40;64.00
19110;DHT22;9687;50.836;12.060;2024-03-07T09:45:41;15.60;63.40
19110;DHT22;9687;50.836;12.060;2024-03-07T09:48:10;15.80;63.20
19110;DHT22;9687;50.836;12.060;2024-03-07T09:50:39;15.90;62.60
19110;DHT22;9687;50.836;12.060;2024-03-07T09:53:08;16.00;61.60
19110;DHT22;9687;50.836;12.060;2024-03-07T09:55:38;16.10;60.10
19110;DHT22;9687;50.836;12.060;2024-03-07T09:58:07;16.00;59.00
19110;DHT22;9687;50.836;12.060;2024-03-07T10:00:35;16.00;58.00
19110;DHT22;9687;50.836;12.060;2024-03-07T10:03:43;16.00;57.70
19110;DHT22;9687;50.836;12.060;2024-03-07T10:06:11;15.90;56.90
19110;DHT22;9687;50.836;12.060;2024-03-07T10:08:39;15.90;56.90
19110;DHT22;9687;50.836;12.060;2024-03-07T10:11:10;15.80;56.20
19110;DHT22;9687;50.836;12.060;2024-03-07T10:13:40;15.70;56.00
19110;DHT22;9687;50.836;12.060;2024-03-07T10:16:08;15.50;55.60
19110;DHT22;9687;50.836;12.060;2024-03-07T10:18:41;15.20;55.90
19110;DHT22;9687;50.836;12.060;2024-03-07T10:21:13;15.20;56.90
19110;DHT22;9687;50.836;12.060;2024-03-07T10:23:45;15.30;57.00
19110;DHT22;9687;50.836;12.060;2024-03-07T10:26:14;15.50;57.00
19110;DHT22;9687;50.836;12.060;2024-03-07T10:28:43;15.60;56.10
19110;DHT22;9687;50.836;12.060;2024-03-07T10:31:10;15.60;55.90
19110;DHT22;9687;50.836;12.060;2024-03-07T10:33:41;15.80;56.00
19110;DHT22;9687;50.836;12.060;2024-03-07T10:36:12;15.90;56.20
19110;DHT22;9687;50.836;12.060;2024-03-07T10:38:43;16.00;55.30
19110;DHT22;9687;50.836;12.060;2024-03-07T10:54:32;14.30;54.60
19110;DHT22;9687;50.836;12.060;2024-03-07T10:57:06;13.90;54.30
19110;DHT22;9687;50.836;12.060;2024-03-07T10:59:36;13.60;53.90
19110;DHT22;9687;50.836;12.060;2024-03-07T11:02:10;13.30;54.30
19110;DHT22;9687;50.836;12.060;2024-03-07T11:04:44;13.10;54.50
19110;DHT22;9687;50.836;12.060;2024-03-07T11:07:14;12.90;54.60
19110;DHT22;9687;50.836;12.060;2024-03-07T11:09:44;12.80;54.80
19110;DHT22;9687;50.836;12.060;2024-03-07T11:12:13;12.60;54.80
19110;DHT22;9687;50.836;12.060;2024-03-07T11:14:41;12.40;54.70
19110;DHT22;9687;50.836;12.060;2024-03-07T11:17:11;12.30;54.80
19110;DHT22;9687;50.836;12.060;2024-03-07T11:19:41;12.20;54.90
19110;DHT22;9687;50.836;12.060;2024-03-07T11:22:27;12.00;54.90
19110;DHT22;9687;50.836;12.060;2024-03-07T11:25:02;12.00;55.10
19110;DHT22;9687;50.836;12.060;2024-03-07T11:27:33;11.80;55.20
19110;DHT22;9687;50.836;12.060;2024-03-07T11:30:04;11.70;55.40
19110;DHT22;9687;50.836;12.060;2024-03-07T11:32:34;11.70;55.60
19110;DHT22;9687;50.836;12.060;2024-03-07T11:35:04;11.60;55.50
19110;DHT22;9687;50.836;12.060;2024-03-07T11:37:42;11.60;55.50
19110;DHT22;9687;50.836;12.060;2024-03-07T11:46:33;11.40;55.30
19110;DHT22;9687;50.836;12.060;2024-03-07T11:49:05;11.30;55.60
19110;DHT22;9687;50.836;12.060;2024-03-07T11:51:39;11.30;55.70
19110;DHT22;9687;50.836;12.060;2024-03-07T11:54:08;11.20;55.80
19110;DHT22;9687;50.836;12.060;2024-03-07T11:56:41;11.20;55.80
19110;DHT22;9687;50.836;12.060;2024-03-07T11:59:10;11.20;56.00
19110;DHT22;9687;50.836;12.060;2024-03-07T12:01:41;11.30;56.00
19110;DHT22;9687;50.836;12.060;2024-03-07T12:04:12;11.30;55.70
19110;DHT22;9687;50.836;12.060;2024-03-07T12:06:49;11.30;55.40
19110;DHT22;9687;50.836;12.060;2024-03-07T12:09:17;11.30;55.30
19110;DHT22;9687;50.836;12.060;2024-03-07T12:11:50;11.30;55.30
19110;DHT22;9687;50.836;12.060;2024-03-07T12:14:21;11.30;55.30
19110;DHT22;9687;50.836;12.060;2024-03-07T12:19:36;11.20;55.50
19110;DHT22;9687;50.836;12.060;2024-03-07T12:22:07;11.20;55.70
19110;DHT22;9687;50.836;12.060;2024-03-07T12:24:39;11.30;55.80
19110;DHT22;9687;50.836;12.060;2024-03-07T12:27:08;11.30;55.70
19110;DHT22;9687;50.836;12.060;2024-03-07T12:29:38;11.20;55.70
19110;DHT22;9687;50.836;12.060;2024-03-07T12:32:08;11.20;55.60
19110;DHT22;9687;50.836;12.060;2024-03-07T12:34:38;11.20;55.60
19110;DHT22;9687;50.836;12.060;2024-03-07T12:37:09;11.20;55.60
19110;DHT22;9687;50.836;12.060;2024-03-07T12:39:39;11.20;55.70
19110;DHT22;9687;50.836;12.060;2024-03-07T12:42:13;11.20;55.70
19110;DHT22;9687;50.836;12.060;2024-03-07T12:51:11;11.10;55.70
19110;DHT22;9687;50.836;12.060;2024-03-07T12:53:44;11.10;55.80
19110;DHT22;9687;50.836;12.060;2024-03-07T12:56:13;11.00;55.70
19110;DHT22;9687;50.836;12.060;2024-03-07T12:58:43;11.00;55.70
19110;DHT22;9687;50.836;12.060;2024-03-07T13:01:11;11.00;55.80
19110;DHT22;9687;50.836;12.060;2024-03-07T13:03:39;11.00;55.80
19110;DHT22;9687;50.836;12.060;2024-03-07T13:06:08;11.00;55.80
19110;DHT22;9687;50.836;12.060;2024-03-07T13:08:39;10.90;55.80
19110;DHT22;9687;50.836;12.060;2024-03-07T13:11:07;10.90;55.90
19110;DHT22;9687;50.836;12.060;2024-03-07T13:13:38;10.90;55.80
19110;DHT22;9687;50.836;12.060;2024-03-07T13:16:09;10.90;55.80
19110;DHT22;9687;50.836;12.060;2024-03-07T13:18:38;10.90;56.00
19110;DHT22;9687;50.836;12.060;2024-03-07T13:21:08;11.00;56.20
19110;DHT22;9687;50.836;12.060;2024-03-07T13:27:13;10.80;56.20
19110;DHT22;9687;50.836;12.060;2024-03-07T13:29:57;10.80;56.20
19110;DHT22;9687;50.836;12.060;2024-03-07T13:32:25;10.80;56.10
19110;DHT22;9687;50.836;12.060;2024-03-07T13:34:55;10.70;56.10
19110;DHT22;9687;50.836;12.060;2024-03-07T13:37:22;10.70;56.10
19110;DHT22;9687;50.836;12.060;2024-03-07T13:39:49;10.70;56.10
19110;DHT22;9687;50.836;12.060;2024-03-07T13:42:18;10.60;56.00
19110;DHT22;9687;50.836;12.060;2024-03-07T13:44:48;10.70;56.10
19110;DHT22;9687;50.836;12.060;2024-03-07T13:47:19;10.60;56.00
19110;DHT22;9687;50.836;12.060;2024-03-07T13:49:48;10.60;55.90
19110;DHT22;9687;50.836;12.060;2024-03-07T13:52:17;10.60;55.80
19110;DHT22;9687;50.836;12.060;2024-03-07T13:54:44;10.60;55.80
19110;DHT22;9687;50.836;12.060;2024-03-07T13:57:20;10.50;55.70
19110;DHT22;9687;50.836;12.060;2024-03-07T13:59:59;10.50;55.70
19110;DHT22;9687;50.836;12.060;2024-03-07T14:05:38;10.50;55.90
19110;DHT22;9687;50.836;12.060;2024-03-07T14:08:19;10.60;56.00
19110;DHT22;9687;50.836;12.060;2024-03-07T14:11:04;10.60;55.80
19110;DHT22;9687;50.836;12.060;2024-03-07T14:13:47;10.50;55.70
19110;DHT22;9687;50.836;12.060;2024-03-07T14:21:58;10.50;55.70
19110;DHT22;9687;50.836;12.060;2024-03-07T14:24:36;10.50;55.80
19110;DHT22;9687;50.836;12.060;2024-03-07T14:27:15;10.50;55.90
19110;DHT22;9687;50.836;12.060;2024-03-07T14:29:52;10.50;56.00
19110;DHT22;9687;50.836;12.060;2024-03-07T14:32:29;10.50;56.00
19110;DHT22;9687;50.836;12.060;2024-03-07T14:34:58;10.60;56.10
19110;DHT22;9687;50.836;12.060;2024-03-07T14:37:33;10.50;55.90
19110;DHT22;9687;50.836;12.060;2024-03-07T14:40:08;10.50;55.90
19110;DHT22;9687;50.836;12.060;2024-03-07T14:42:41;10.40;55.90
19110;DHT22;9687;50.836;12.060;2024-03-07T14:45:14;10.40;55.80
19110;DHT22;9687;50.836;12.060;2024-03-07T14:47:45;10.40;56.00
19110;DHT22;9687;50.836;12.060;2024-03-07T14:50:15;10.40;56.10
19110;DHT22;9687;50.836;12.060;2024-03-07T14:52:47;10.40;56.30
19110;DHT22;9687;50.836;12.060;2024-03-07T14:55:17;10.50;56.30
19110;DHT22;9687;50.836;12.060;2024-03-07T14:57:46;10.60;56.20
19110;DHT22;9687;50.836;12.060;2024-03-07T15:00:17;10.60;56.20
19110;DHT22;9687;50.836;12.060;2024-03-07T15:02:46;10.70;56.10
19110;DHT22;9687;50.836;12.060;2024-03-07T15:05:13;10.70;56.00
19110;DHT22;9687;50.836;12.060;2024-03-07T15:07:43;10.70;55.90
19110;DHT22;9687;50.836;12.060;2024-03-07T15:10:14;10.70;56.10
19110;DHT22;9687;50.836;12.060;2024-03-07T15:12:44;10.70;56.20
19110;DHT22;9687;50.836;12.060;2024-03-07T15:15:12;10.70;56.10
19110;DHT22;9687;50.836;12.060;2024-03-07T15:17:41;10.70;56.30
19110;DHT22;9687;50.836;12.060;2024-03-07T15:20:09;10.70;56.30
19110;DHT22;9687;50.836;12.060;2024-03-07T15:22:50;10.70;56.30
19110;DHT22;9687;50.836;12.060;2024-03-07T15:25:19;10.70;56.10
19110;DHT22;9687;50.836;12.060;2024-03-07T15:27:48;10.60;56.10
19110;DHT22;9687;50.836;12.060;2024-03-07T15:30:18;10.60;56.20
19110;DHT22;9687;50.836;12.060;2024-03-07T15:32:49;10.50;56.10
19110;DHT22;9687;50.836;12.060;2024-03-07T15:35:18;10.50;56.20
19110;DHT22;9687;50.836;12.060;2024-03-07T15:37:45;10.40;56.20
19110;DHT22;9687;50.836;12.060;2024-03-07T15:40:13;10.30;56.20
19110;DHT22;9687;50.836;12.060;2024-03-07T15:42:42;10.30;56.30
19110;DHT22;9687;50.836;12.060;2024-03-07T15:45:13;10.20;56.40
19110;DHT22;9687;50.836;12.060;2024-03-07T15:47:43;10.10;57.00
19110;DHT22;9687;50.836;12.060;2024-03-07T15:50:15;10.10;56.50
19110;DHT22;9687;50.836;12.060;2024-03-07T15:52:44;10.10;56.60
19110;DHT22;9687;50.836;12.060;2024-03-07T15:55:13;10.10;56.60
19110;DHT22;9687;50.836;12.060;2024-03-07T15:57:41;10.00;56.60
19110;DHT22;9687;50.836;12.060;2024-03-07T16:00:12;9.90;57.50
19110;DHT22;9687;50.836;12.060;2024-03-07T16:02:51;9.80;57.60
19110;DHT22;9687;50.836;12.060;2024-03-07T16:05:21;9.80;57.60
19110;DHT22;9687;50.836;12.060;2024-03-07T16:07:51;9.70;57.60
19110;DHT22;9687;50.836;12.060;2024-03-07T16:10:18;9.60;57.60
19110;DHT22;9687;50.836;12.060;2024-03-07T16:12:48;9.60;57.80
19110;DHT22;9687;50.836;12.060;2024-03-07T16:15:16;9.50;57.80
19110;DHT22;9687;50.836;12.060;2024-03-07T16:17:46;9.50;57.80
19110;DHT22;9687;50.836;12.060;2024-03-07T16:20:15;9.40;57.80
19110;DHT22;9687;50.836;12.060;2024-03-07T16:22:47;9.40;57.90
19110;DHT22;9687;50.836;12.060;2024-03-07T16:25:15;9.40;58.00
19110;DHT22;9687;50.836;12.060;2024-03-07T16:27:47;9.30;57.90
19110;DHT22;9687;50.836;12.060;2024-03-07T16:30:17;9.20;57.90
19110;DHT22;9687;50.836;12.060;2024-03-07T16:32:46;9.20;57.90
19110;DHT22;9687;50.836;12.060;2024-03-07T16:35:17;9.20;58.00
19110;DHT22;9687;50.836;12.060;2024-03-07T16:37:50;9.10;57.90
19110;DHT22;9687;50.836;12.060;2024-03-07T16:40:20;9.10;58.10
19110;DHT22;9687;50.836;12.060;2024-03-07T16:42:48;9.10;58.10
19110;DHT22;9687;50.836;12.060;2024-03-07T16:45:18;9.10;58.10
19110;DHT22;9687;50.836;12.060;2024-03-07T16:47:47;9.10;58.10
19110;DHT22;9687;50.836;12.060;2024-03-07T16:50:20;9.10;58.10
19110;DHT22;9687;50.836;12.060;2024-03-07T16:52:50;9.10;58.10
19110;DHT22;9687;50.836;12.060;2024-03-07T16:55:18;9.10;58.10
19110;DHT22;9687;50.836;12.060;2024-03-07T16:57:47;9.10;58.10
19110;DHT22;9687;50.836;12.060;2024-03-07T17:00:16;9.10;58.10